Ocean Grove, New Jersey
Current Conditions -  °F | °C
As of 8:55 AM on Thursday 23 Oct 2014 (Local Time) from KBLM Reporting Station
Overcast Overcast  
Wind Chill: 52°   Ceiling: 1800
Heat Index: 52°   Visibility: 9mi
Dew Point: 45°   Wind: 20mph
Humidity: 76%   Direction: 330°NNW
Pressure: 29.7"   Gusts: 25mph
Location:  40.21°N, 74.01°W
Report Text: KBLM 231255Z AUTO 33017G22KT 9SM FEW013 OVC018 11/07 A2970 RMK AO1
Loading
Personal Weather Stations






























Interactive Weather Map
Tropical Storm Tracking
New forecast layout! Learn more

10-Day Weather Forecast

Advertisements
Track Severe Weather on mobile